Time,TemperatureF,DewpointF,PressureIn,WindDirection,WindDirectionDegrees,WindSpeedMPH,WindSpeedGustMPH,Humidity,HourlyPrecipIn,Conditions,Clouds,dailyrainin,SoftwareType,DateUTC
2013-02-11 00:00:00,42.1,36.4,30.14,NW,315,0.0,0.0,80,0.02,,CLR,0.19,VWS V12.08,2013-02-11 05:00:00,
2013-02-11 00:01:00,42.1,36.4,30.14,NW,315,0.0,0.0,80,0.02,,CLR,0.19,VWS V12.08,2013-02-11 05:01:00,
2013-02-11 00:06:00,42.1,36.4,30.14,NW,315,0.0,0.0,80,0.02,,CLR,0.19,VWS V12.08,2013-02-11 05:06:00,
2013-02-11 00:11:00,42.1,36.4,30.13,NW,315,0.0,0.0,80,0.02,,CLR,0.19,VWS V12.08,2013-02-11 05:11:00,
2013-02-11 00:16:00,42.1,36.4,30.12,ENE,68,0.0,0.0,80,0.02,,CLR,0.19,VWS V12.08,2013-02-11 05:16:00,
2013-02-11 00:21:00,42.1,36.4,30.12,ENE,68,0.0,0.0,80,0.00,,CLR,0.19,VWS V12.08,2013-02-11 05:21:00,
2013-02-11 00:26:00,42.1,36.4,30.13,ENE,68,0.0,0.0,80,0.00,,CLR,0.19,VWS V12.08,2013-02-11 05:26:00,
2013-02-11 00:31:00,42.1,36.4,30.13,ENE,68,0.0,0.0,80,0.00,,CLR,0.19,VWS V12.08,2013-02-11 05:31:00,
2013-02-11 00:36:00,42.1,36.7,30.14,ENE,68,0.0,0.0,81,0.00,,CLR,0.19,VWS V12.08,2013-02-11 05:36:00,
2013-02-11 00:41:00,42.1,36.7,30.14,ENE,68,0.0,0.0,81,0.00,,CLR,0.19,VWS V12.08,2013-02-11 05:41:00,
2013-02-11 00:46:00,42.1,36.7,30.14,ENE,68,0.0,0.0,81,0.00,,CLR,0.19,VWS V12.08,2013-02-11 05:46:00,
2013-02-11 00:51:00,42.1,36.7,30.14,ENE,68,0.0,0.0,81,0.00,,CLR,0.19,VWS V12.08,2013-02-11 05:51:00,
2013-02-11 00:56:00,42.1,36.7,30.13,ENE,68,0.0,0.0,81,0.00,,CLR,0.19,VWS V12.08,2013-02-11 05:56:00,
2013-02-11 01:01:00,42.1,36.7,30.13,ENE,68,0.0,0.0,81,0.00,,CLR,0.19,VWS V12.08,2013-02-11 06:01:00,
2013-02-11 01:06:00,42.1,36.7,30.13,ENE,68,0.0,0.0,81,0.00,,CLR,0.19,VWS V12.08,2013-02-11 06:06:00,
2013-02-11 01:11:00,42.3,36.9,30.13,ENE,68,0.0,0.0,81,0.00,,CLR,0.19,VWS V12.08,2013-02-11 06:11:00,
2013-02-11 01:16:00,42.1,36.7,30.12,ENE,68,0.0,0.0,81,0.00,,CLR,0.19,VWS V12.08,2013-02-11 06:16:00,
2013-02-11 01:21:00,42.1,36.7,30.13,ENE,68,0.0,0.0,81,0.00,,CLR,0.19,VWS V12.08,2013-02-11 06:21:00,
2013-02-11 01:27:00,42.1,36.7,30.13,ENE,68,0.0,0.0,81,0.00,,CLR,0.19,VWS V12.08,2013-02-11 06:27:00,
2013-02-11 01:32:00,42.1,36.7,30.13,ENE,68,0.0,0.0,81,0.00,,CLR,0.19,VWS V12.08,2013-02-11 06:32:00,
2013-02-11 01:37:00,42.1,36.7,30.13,ENE,68,0.0,0.0,81,0.00,,CLR,0.19,VWS V12.08,2013-02-11 06:37:00,
2013-02-11 01:42:00,42.1,36.7,30.13,ENE,68,0.0,0.0,81,0.00,,CLR,0.19,VWS V12.08,2013-02-11 06:42:00,
2013-02-11 01:47:00,42.1,36.7,30.13,ENE,68,0.0,0.0,81,0.00,,CLR,0.19,VWS V12.08,2013-02-11 06:47:00,
2013-02-11 01:52:00,42.1,36.7,30.12,ENE,68,0.0,0.0,81,0.00,,CLR,0.19,VWS V12.08,2013-02-11 06:52:00,
2013-02-11 01:57:00,42.1,36.7,30.11,ENE,68,0.0,0.0,81,0.00,,CLR,0.19,VWS V12.08,2013-02-11 06:57:00,
2013-02-11 02:02:00,42.1,36.7,30.11,ENE,68,0.0,0.0,81,0.00,,CLR,0.19,VWS V12.08,2013-02-11 07:02:00,
2013-02-11 02:07:00,42.1,36.7,30.10,ENE,68,0.0,0.0,81,0.00,,CLR,0.19,VWS V12.08,2013-02-11 07:07:00,
2013-02-11 02:12:00,42.1,36.7,30.10,ENE,68,0.0,0.0,81,0.00,,CLR,0.19,VWS V12.08,2013-02-11 07:12:00,
2013-02-11 02:17:00,42.1,36.7,30.11,ENE,68,0.0,0.0,81,0.00,,CLR,0.19,VWS V12.08,2013-02-11 07:17:00,
2013-02-11 02:22:00,42.1,36.7,30.11,ENE,68,0.0,0.0,81,0.00,,CLR,0.19,VWS V12.08,2013-02-11 07:22:00,
2013-02-11 02:27:00,42.1,36.7,30.10,ENE,68,0.0,0.0,81,0.00,,CLR,0.19,VWS V12.08,2013-02-11 07:27:00,
2013-02-11 02:32:00,42.1,36.7,30.10,ENE,68,0.0,0.0,81,0.00,,CLR,0.19,VWS V12.08,2013-02-11 07:32:00,
2013-02-11 02:37:00,42.1,36.7,30.09,ENE,68,0.0,0.0,81,0.00,,CLR,0.19,VWS V12.08,2013-02-11 07:37:00,
2013-02-11 02:42:00,42.1,36.7,30.09,ENE,68,0.0,0.0,81,0.00,,CLR,0.19,VWS V12.08,2013-02-11 07:42:00,
2013-02-11 02:47:00,42.1,36.7,30.09,ENE,68,0.0,0.0,81,0.00,,CLR,0.19,VWS V12.08,2013-02-11 07:47:00,
2013-02-11 02:52:00,42.1,36.7,30.09,ENE,68,0.0,0.0,81,0.00,,CLR,0.19,VWS V12.08,2013-02-11 07:52:00,
2013-02-11 02:57:00,42.1,36.7,30.08,ENE,68,0.0,0.0,81,0.00,,CLR,0.19,VWS V12.08,2013-02-11 07:57:00,
2013-02-11 03:02:00,42.1,36.7,30.08,ENE,68,0.0,0.0,81,0.00,,CLR,0.19,VWS V12.08,2013-02-11 08:02:00,
2013-02-11 03:07:00,42.1,36.7,30.09,ENE,68,0.0,0.0,81,0.00,,CLR,0.19,VWS V12.08,2013-02-11 08:07:00,
2013-02-11 03:12:00,42.1,36.7,30.08,ENE,68,0.0,0.0,81,0.00,,CLR,0.19,VWS V12.08,2013-02-11 08:12:00,
2013-02-11 03:17:00,42.1,36.7,30.07,ENE,68,0.0,0.0,81,0.00,,CLR,0.19,VWS V12.08,2013-02-11 08:17:00,
2013-02-11 03:22:00,42.3,36.9,30.06,ENE,68,0.0,0.0,81,0.00,,CLR,0.19,VWS V12.08,2013-02-11 08:22:00,
2013-02-11 03:27:00,42.1,37.0,30.06,ENE,68,0.0,0.0,82,0.00,,CLR,0.19,VWS V12.08,2013-02-11 08:27:00,
2013-02-11 03:32:00,42.1,37.0,30.06,ENE,68,0.0,0.0,82,0.00,,CLR,0.19,VWS V12.08,2013-02-11 08:32:00,
2013-02-11 03:37:00,42.1,37.0,30.06,ENE,68,0.0,0.0,82,0.00,,CLR,0.19,VWS V12.08,2013-02-11 08:37:00,
2013-02-11 03:42:00,42.1,37.0,30.07,NW,315,0.0,0.0,82,0.00,,CLR,0.19,VWS V12.08,2013-02-11 08:42:00,
2013-02-11 03:47:00,42.1,37.0,30.06,NNW,338,0.0,0.0,82,0.00,,CLR,0.19,VWS V12.08,2013-02-11 08:47:00,
2013-02-11 03:52:00,42.1,37.0,30.06,NNW,338,0.0,0.0,82,0.00,,CLR,0.19,VWS V12.08,2013-02-11 08:52:00,
2013-02-11 03:57:00,42.3,37.2,30.06,NNW,338,0.0,0.0,82,0.00,,CLR,0.19,VWS V12.08,2013-02-11 08:57:00,
2013-02-11 04:02:00,42.1,37.0,30.06,NNW,338,0.0,0.0,82,0.00,,CLR,0.19,VWS V12.08,2013-02-11 09:02:00,
2013-02-11 04:08:00,42.1,37.0,30.06,NNW,338,0.0,0.0,82,0.00,,CLR,0.19,VWS V12.08,2013-02-11 09:08:00,
2013-02-11 04:13:00,42.3,37.2,30.07,NNW,338,0.0,0.0,82,0.00,,CLR,0.19,VWS V12.08,2013-02-11 09:13:00,
2013-02-11 04:18:00,42.4,37.3,30.06,NNW,338,0.0,0.0,82,0.02,,CLR,0.22,VWS V12.08,2013-02-11 09:18:00,
2013-02-11 04:23:00,42.4,37.3,30.06,NNE,22,0.0,0.0,82,0.02,,CLR,0.22,VWS V12.08,2013-02-11 09:23:00,
2013-02-11 04:28:00,42.4,37.3,30.06,NE,45,0.0,0.0,82,0.02,,CLR,0.22,VWS V12.08,2013-02-11 09:28:00,
2013-02-11 04:33:00,42.4,37.3,30.06,NE,45,0.0,0.0,82,0.02,,CLR,0.22,VWS V12.08,2013-02-11 09:33:00,
2013-02-11 04:38:00,42.6,37.8,30.06,NE,45,0.0,0.0,83,0.02,,CLR,0.22,VWS V12.08,2013-02-11 09:38:00,
2013-02-11 04:43:00,42.6,37.8,30.06,NE,45,0.0,0.0,83,0.02,,CLR,0.22,VWS V12.08,2013-02-11 09:43:00,
2013-02-11 04:48:00,42.6,37.8,30.06,NE,45,0.0,0.0,83,0.02,,CLR,0.22,VWS V12.08,2013-02-11 09:48:00,
2013-02-11 04:53:00,42.6,37.8,30.06,NE,45,0.0,0.0,83,0.02,,CLR,0.22,VWS V12.08,2013-02-11 09:53:00,
2013-02-11 04:58:00,42.6,37.8,30.06,NE,45,0.0,0.0,83,0.02,,CLR,0.22,VWS V12.08,2013-02-11 09:58:00,
2013-02-11 05:03:00,42.8,38.0,30.06,NE,45,0.0,0.0,83,0.02,,CLR,0.22,VWS V12.08,2013-02-11 10:03:00,
2013-02-11 05:08:00,43.0,38.5,30.06,NE,45,0.0,0.0,84,0.02,,CLR,0.22,VWS V12.08,2013-02-11 10:08:00,
2013-02-11 05:13:00,43.0,38.5,30.06,NE,45,0.0,0.0,84,0.00,,CLR,0.22,VWS V12.08,2013-02-11 10:13:00,
2013-02-11 05:18:00,43.0,38.2,30.06,NE,45,0.0,0.0,83,0.02,,CLR,0.24,VWS V12.08,2013-02-11 10:18:00,
2013-02-11 05:23:00,43.0,38.2,30.07,NE,45,0.0,0.0,83,0.02,,CLR,0.24,VWS V12.08,2013-02-11 10:23:00,
2013-02-11 05:28:00,43.0,38.2,30.07,NE,45,0.0,0.0,83,0.02,,CLR,0.24,VWS V12.08,2013-02-11 10:28:00,
2013-02-11 05:33:00,43.0,38.2,30.07,NE,45,0.0,0.0,83,0.02,,CLR,0.24,VWS V12.08,2013-02-11 10:33:00,
2013-02-11 05:38:00,43.2,38.7,30.07,NE,45,0.0,0.0,84,0.02,,CLR,0.24,VWS V12.08,2013-02-11 10:38:00,
2013-02-11 05:43:00,43.2,38.7,30.07,ENE,68,0.0,0.0,84,0.02,,CLR,0.24,VWS V12.08,2013-02-11 10:43:00,
2013-02-11 05:48:00,43.3,38.8,30.07,ENE,68,0.0,0.0,84,0.02,,CLR,0.24,VWS V12.08,2013-02-11 10:48:00,
2013-02-11 05:53:00,43.3,38.8,30.07,ENE,68,0.0,0.0,84,0.02,,CLR,0.24,VWS V12.08,2013-02-11 10:53:00,
2013-02-11 05:58:00,43.3,38.8,30.06,ENE,68,0.0,0.0,84,0.02,,CLR,0.24,VWS V12.08,2013-02-11 10:58:00,
2013-02-11 06:03:00,43.3,38.8,30.06,ENE,68,0.0,0.0,84,0.02,,CLR,0.24,VWS V12.08,2013-02-11 11:03:00,
2013-02-11 06:08:00,43.5,39.0,30.06,ENE,68,0.0,0.0,84,0.02,,CLR,0.24,VWS V12.08,2013-02-11 11:08:00,
2013-02-11 06:13:00,43.5,39.0,30.06,ENE,68,0.0,0.0,84,0.02,,CLR,0.24,VWS V12.08,2013-02-11 11:13:00,
2013-02-11 06:18:00,43.5,39.0,30.04,ENE,68,0.0,0.0,84,0.00,,CLR,0.24,VWS V12.08,2013-02-11 11:18:00,
2013-02-11 06:23:00,43.5,39.0,30.05,ENE,68,0.0,0.0,84,0.00,,CLR,0.24,VWS V12.08,2013-02-11 11:23:00,
2013-02-11 06:28:00,43.5,39.0,30.04,ENE,68,0.0,0.0,84,0.00,,CLR,0.24,VWS V12.08,2013-02-11 11:28:00,
2013-02-11 06:33:00,43.5,39.0,30.03,ENE,68,0.0,0.0,84,0.00,,CLR,0.24,VWS V12.08,2013-02-11 11:33:00,
2013-02-11 06:38:00,43.5,39.0,30.02,ENE,68,0.0,0.0,84,0.00,,CLR,0.24,VWS V12.08,2013-02-11 11:38:00,
2013-02-11 06:43:00,43.5,39.0,30.03,ENE,68,0.0,0.0,84,0.02,,CLR,0.26,VWS V12.08,2013-02-11 11:43:00,
2013-02-11 06:48:00,43.5,39.0,30.03,ENE,68,0.0,0.0,84,0.02,,CLR,0.26,VWS V12.08,2013-02-11 11:48:00,
2013-02-11 06:53:00,43.5,39.0,30.02,ENE,68,0.7,0.7,84,0.02,,CLR,0.26,VWS V12.08,2013-02-11 11:53:00,
2013-02-11 06:58:00,43.5,39.0,30.01,SE,135,0.0,0.7,84,0.02,,CLR,0.26,VWS V12.08,2013-02-11 11:58:00,
2013-02-11 07:03:00,43.7,39.5,30.01,ESE,112,0.0,0.0,85,0.02,,CLR,0.26,VWS V12.08,2013-02-11 12:03:00,
2013-02-11 07:08:00,43.7,39.5,30.01,East,90,0.0,0.0,85,0.02,,CLR,0.26,VWS V12.08,2013-02-11 12:08:00,
2013-02-11 07:13:00,43.7,39.5,30.02,East,90,0.0,0.0,85,0.02,,CLR,0.26,VWS V12.08,2013-02-11 12:13:00,
2013-02-11 07:18:00,44.2,40.0,30.03,North,0,0.0,0.0,85,0.02,,CLR,0.26,VWS V12.08,2013-02-11 12:18:00,
2013-02-11 07:23:00,44.2,40.0,30.03,North,0,0.0,0.0,85,0.02,,CLR,0.26,VWS V12.08,2013-02-11 12:23:00,
2013-02-11 07:28:00,44.4,40.2,30.03,North,0,0.0,0.0,85,0.02,,CLR,0.26,VWS V12.08,2013-02-11 12:28:00,
2013-02-11 07:33:00,44.4,40.5,30.03,NW,315,0.0,0.7,86,0.02,,CLR,0.26,VWS V12.08,2013-02-11 12:33:00,
2013-02-11 07:38:00,44.6,40.7,30.04,NW,315,0.0,0.7,86,0.00,,CLR,0.26,VWS V12.08,2013-02-11 12:38:00,
2013-02-11 07:43:00,44.8,40.9,30.03,NNW,338,0.0,0.0,86,0.00,,CLR,0.26,VWS V12.08,2013-02-11 12:43:00,
2013-02-11 07:48:00,44.6,40.7,30.04,NE,45,0.2,0.2,86,0.00,,CLR,0.26,VWS V12.08,2013-02-11 12:48:00,
2013-02-11 07:53:00,44.6,40.7,30.04,NE,45,0.0,0.2,86,0.00,,CLR,0.26,VWS V12.08,2013-02-11 12:53:00,
2013-02-11 07:58:00,44.6,40.7,30.04,ENE,68,0.0,0.2,86,0.00,,CLR,0.26,VWS V12.08,2013-02-11 12:58:00,
2013-02-11 08:03:00,44.8,40.9,30.04,ENE,68,0.0,0.0,86,0.00,,CLR,0.26,VWS V12.08,2013-02-11 13:03:00,
2013-02-11 08:08:00,44.8,40.5,30.04,ENE,68,0.0,0.0,85,0.00,,CLR,0.26,VWS V12.08,2013-02-11 13:08:00,
2013-02-11 08:13:00,44.8,40.5,30.03,ENE,68,0.0,0.0,85,0.00,,CLR,0.26,VWS V12.08,2013-02-11 13:13:00,
2013-02-11 08:18:00,45.0,41.0,30.03,ENE,68,0.0,0.0,86,0.00,,CLR,0.26,VWS V12.08,2013-02-11 13:18:00,
2013-02-11 08:23:00,45.0,41.0,30.03,ENE,68,0.0,0.0,86,0.00,,CLR,0.26,VWS V12.08,2013-02-11 13:23:00,
2013-02-11 08:29:00,45.0,41.0,30.03,WSW,248,0.0,0.0,86,0.00,,CLR,0.26,VWS V12.08,2013-02-11 13:29:00,
2013-02-11 08:34:00,45.1,41.2,30.03,WSW,248,2.0,2.0,86,0.00,,CLR,0.26,VWS V12.08,2013-02-11 13:34:00,
2013-02-11 08:39:00,45.1,41.2,30.03,West,270,0.0,2.0,86,0.00,,CLR,0.26,VWS V12.08,2013-02-11 13:39:00,
2013-02-11 08:44:00,45.3,41.4,30.03,NE,45,0.0,0.0,86,0.00,,CLR,0.26,VWS V12.08,2013-02-11 13:44:00,
2013-02-11 08:49:00,45.7,42.0,30.04,WNW,292,0.0,0.0,87,0.00,,CLR,0.26,VWS V12.08,2013-02-11 13:49:00,
2013-02-11 08:54:00,45.7,42.0,30.04,NE,45,1.3,1.3,87,0.00,,CLR,0.26,VWS V12.08,2013-02-11 13:54:00,
2013-02-11 08:59:00,45.9,42.2,30.04,West,270,0.9,1.3,87,0.00,,CLR,0.26,VWS V12.08,2013-02-11 13:59:00,
2013-02-11 09:04:00,46.0,42.1,30.04,NNW,338,0.0,0.9,86,0.00,,CLR,0.26,VWS V12.08,2013-02-11 14:04:00,
2013-02-11 09:09:00,46.0,42.1,30.04,NW,315,0.0,3.4,86,0.00,,CLR,0.26,VWS V12.08,2013-02-11 14:09:00,
2013-02-11 09:14:00,46.0,42.1,30.03,NW,315,0.0,3.4,86,0.00,,CLR,0.26,VWS V12.08,2013-02-11 14:14:00,
2013-02-11 09:19:00,46.2,42.3,30.03,NW,315,0.0,3.4,86,0.00,,CLR,0.26,VWS V12.08,2013-02-11 14:19:00,
2013-02-11 09:24:00,46.2,42.3,30.03,NW,315,0.0,0.0,86,0.00,,CLR,0.26,VWS V12.08,2013-02-11 14:24:00,
2013-02-11 09:29:00,46.6,42.6,30.03,North,0,0.0,0.0,86,0.00,,CLR,0.26,VWS V12.08,2013-02-11 14:29:00,
2013-02-11 09:34:00,46.8,42.8,30.03,WNW,292,0.0,0.0,86,0.00,,CLR,0.26,VWS V12.08,2013-02-11 14:34:00,
2013-02-11 09:39:00,46.9,43.0,30.03,WNW,292,1.1,1.1,86,0.00,,CLR,0.26,VWS V12.08,2013-02-11 14:39:00,
2013-02-11 09:44:00,46.9,43.0,30.03,NNE,22,0.0,0.0,86,0.00,,CLR,0.26,VWS V12.08,2013-02-11 14:44:00,
2013-02-11 09:49:00,47.1,43.2,30.03,NNE,22,0.0,0.0,86,0.00,,CLR,0.26,VWS V12.08,2013-02-11 14:49:00,
2013-02-11 09:54:00,47.3,43.3,30.01,NNE,22,0.0,0.0,86,0.00,,CLR,0.26,VWS V12.08,2013-02-11 14:54:00,
2013-02-11 09:59:00,47.5,43.5,30.02,NNE,22,0.0,0.0,86,0.00,,CLR,0.26,VWS V12.08,2013-02-11 14:59:00,
2013-02-11 10:04:00,47.7,43.4,30.01,ENE,68,0.0,0.0,85,0.00,,CLR,0.26,VWS V12.08,2013-02-11 15:04:00,
2013-02-11 10:09:00,47.8,43.6,30.01,ENE,68,0.0,0.0,85,0.00,,CLR,0.26,VWS V12.08,2013-02-11 15:09:00,
2013-02-11 10:14:00,48.0,43.7,30.01,ENE,68,0.0,0.0,85,0.00,,CLR,0.26,VWS V12.08,2013-02-11 15:14:00,
2013-02-11 10:19:00,48.0,43.7,30.01,ENE,68,0.0,0.0,85,0.00,,CLR,0.26,VWS V12.08,2013-02-11 15:19:00,
2013-02-11 10:24:00,48.6,44.3,30.01,NW,315,0.0,0.7,85,0.00,,CLR,0.26,VWS V12.08,2013-02-11 15:24:00,
2013-02-11 10:29:00,48.7,44.4,30.01,NW,315,0.0,0.7,85,0.00,,CLR,0.26,VWS V12.08,2013-02-11 15:29:00,
2013-02-11 10:34:00,48.7,44.4,30.01,West,270,0.0,0.7,85,0.00,,CLR,0.26,VWS V12.08,2013-02-11 15:34:00,
2013-02-11 10:39:00,49.3,45.0,30.01,West,270,0.0,0.7,85,0.00,,CLR,0.26,VWS V12.08,2013-02-11 15:39:00,
2013-02-11 10:44:00,49.5,45.2,30.01,WNW,292,0.0,0.0,85,0.00,,CLR,0.26,VWS V12.08,2013-02-11 15:44:00,
2013-02-11 10:49:00,49.5,45.2,30.01,WNW,292,0.0,0.0,85,0.00,,CLR,0.26,VWS V12.08,2013-02-11 15:49:00,
2013-02-11 10:54:00,50.2,45.8,30.01,ENE,68,0.0,0.0,85,0.00,,CLR,0.26,VWS V12.08,2013-02-11 15:54:00,
2013-02-11 10:59:00,50.5,46.2,30.01,ENE,68,0.0,0.0,85,0.00,,CLR,0.26,VWS V12.08,2013-02-11 15:59:00,
2013-02-11 11:04:00,50.9,46.6,30.01,ENE,68,0.0,0.0,85,0.00,,CLR,0.26,VWS V12.08,2013-02-11 16:04:00,
2013-02-11 11:09:00,50.9,46.6,30.00,ENE,68,0.0,0.0,85,0.00,,CLR,0.26,VWS V12.08,2013-02-11 16:09:00,
2013-02-11 11:14:00,51.6,47.0,30.01,ENE,68,0.0,0.0,84,0.00,,CLR,0.26,VWS V12.08,2013-02-11 16:14:00,
2013-02-11 11:19:00,51.6,46.6,30.01,ENE,68,0.0,0.0,83,0.00,,CLR,0.26,VWS V12.08,2013-02-11 16:19:00,
2013-02-11 11:24:00,51.6,46.6,30.01,ENE,68,0.0,0.0,83,0.00,,CLR,0.26,VWS V12.08,2013-02-11 16:24:00,
2013-02-11 11:29:00,51.6,46.6,30.00,ENE,68,0.0,0.0,83,0.00,,CLR,0.26,VWS V12.08,2013-02-11 16:29:00,
2013-02-11 11:34:00,52.0,47.0,30.00,ENE,68,0.0,0.0,83,0.00,,CLR,0.26,VWS V12.08,2013-02-11 16:34:00,
2013-02-11 11:39:00,52.0,47.0,30.00,ENE,68,0.0,0.0,83,0.00,,CLR,0.26,VWS V12.08,2013-02-11 16:39:00,
2013-02-11 11:44:00,52.3,47.7,30.01,NW,315,5.1,5.1,84,0.00,,CLR,0.26,VWS V12.08,2013-02-11 16:44:00,
2013-02-11 11:49:00,52.3,47.7,30.01,NW,315,0.0,5.1,84,0.00,,CLR,0.26,VWS V12.08,2013-02-11 16:49:00,
2013-02-11 11:54:00,52.5,47.5,30.01,NW,315,0.0,5.1,83,0.00,,CLR,0.26,VWS V12.08,2013-02-11 16:54:00,
2013-02-11 11:59:00,52.7,47.7,30.01,NNW,338,0.0,5.1,83,0.00,,CLR,0.26,VWS V12.08,2013-02-11 16:59:00,
2013-02-11 12:04:00,52.7,48.0,30.00,ENE,68,0.0,0.0,84,0.00,,CLR,0.26,VWS V12.08,2013-02-11 17:04:00,
2013-02-11 12:09:00,52.7,48.0,30.00,ENE,68,0.0,0.0,84,0.00,,CLR,0.26,VWS V12.08,2013-02-11 17:09:00,
2013-02-11 12:14:00,52.7,48.0,30.00,ENE,68,0.0,0.0,84,0.00,,CLR,0.26,VWS V12.08,2013-02-11 17:14:00,
2013-02-11 12:19:00,52.9,48.2,29.99,ENE,68,0.0,0.0,84,0.00,,CLR,0.26,VWS V12.08,2013-02-11 17:19:00,
2013-02-11 12:24:00,52.9,48.2,29.98,ENE,68,0.0,0.0,84,0.00,,CLR,0.26,VWS V12.08,2013-02-11 17:24:00,
2013-02-11 12:29:00,52.9,48.2,29.99,ENE,68,0.0,0.0,84,0.00,,CLR,0.26,VWS V12.08,2013-02-11 17:29:00,
2013-02-11 12:34:00,52.9,48.2,29.97,NE,45,0.0,0.0,84,0.00,,CLR,0.26,VWS V12.08,2013-02-11 17:34:00,
2013-02-11 12:39:00,52.9,48.2,29.96,ENE,68,0.0,0.0,84,0.00,,CLR,0.26,VWS V12.08,2013-02-11 17:39:00,
2013-02-11 12:44:00,53.2,48.5,29.97,NW,315,0.0,0.0,84,0.00,,CLR,0.26,VWS V12.08,2013-02-11 17:44:00,
2013-02-11 12:49:00,53.2,48.5,29.96,NW,315,0.0,0.0,84,0.00,,CLR,0.26,VWS V12.08,2013-02-11 17:49:00,
2013-02-11 12:54:00,53.8,49.1,29.96,NW,315,0.0,0.0,84,0.00,,CLR,0.26,VWS V12.08,2013-02-11 17:54:00,
2013-02-11 12:59:00,54.3,49.6,29.96,NW,315,0.0,0.0,84,0.00,,CLR,0.26,VWS V12.08,2013-02-11 17:59:00,
2013-02-11 13:04:00,54.5,49.8,29.96,NW,315,4.3,4.3,84,0.00,,CLR,0.26,VWS V12.08,2013-02-11 18:04:00,
2013-02-11 13:09:00,54.7,50.0,29.95,ESE,112,0.0,4.3,84,0.00,,CLR,0.26,VWS V12.08,2013-02-11 18:09:00,
2013-02-11 13:14:00,54.9,50.1,29.95,WNW,292,0.0,4.3,84,0.00,,CLR,0.26,VWS V12.08,2013-02-11 18:14:00,
2013-02-11 13:19:00,54.9,50.1,29.95,WNW,292,0.0,4.3,84,0.00,,CLR,0.26,VWS V12.08,2013-02-11 18:19:00,
2013-02-11 13:24:00,54.9,50.1,29.95,NNW,338,0.0,2.9,84,0.00,,CLR,0.26,VWS V12.08,2013-02-11 18:24:00,
2013-02-11 13:29:00,55.0,50.3,29.96,WNW,292,4.5,4.5,84,0.00,,CLR,0.26,VWS V12.08,2013-02-11 18:29:00,
2013-02-11 13:34:00,55.0,50.3,29.96,WNW,292,0.0,4.5,84,0.00,,CLR,0.26,VWS V12.08,2013-02-11 18:34:00,
2013-02-11 13:39:00,55.0,50.3,29.96,West,270,0.0,4.5,84,0.00,,CLR,0.26,VWS V12.08,2013-02-11 18:39:00,
2013-02-11 13:44:00,55.0,50.3,29.96,WNW,292,0.0,0.0,84,0.00,,CLR,0.26,VWS V12.08,2013-02-11 18:44:00,
2013-02-11 13:49:00,55.2,50.5,29.97,West,270,1.3,1.3,84,0.00,,CLR,0.26,VWS V12.08,2013-02-11 18:49:00,
2013-02-11 13:54:00,55.0,50.3,29.98,NW,315,6.7,6.7,84,0.00,,CLR,0.26,VWS V12.08,2013-02-11 18:54:00,
2013-02-11 14:00:00,55.0,50.3,29.98,NW,315,0.0,6.7,84,0.00,,CLR,0.26,VWS V12.08,2013-02-11 19:00:00,
2013-02-11 14:05:00,55.0,50.3,29.98,NW,315,0.0,0.0,84,0.00,,CLR,0.26,VWS V12.08,2013-02-11 19:05:00,
2013-02-11 14:10:00,55.0,50.3,29.98,WNW,292,0.0,0.0,84,0.00,,CLR,0.26,VWS V12.08,2013-02-11 19:10:00,
2013-02-11 14:15:00,55.2,50.5,29.97,WNW,292,0.0,0.0,84,0.00,,CLR,0.26,VWS V12.08,2013-02-11 19:15:00,
2013-02-11 14:20:00,55.2,50.5,29.97,WNW,292,0.0,0.0,84,0.00,,CLR,0.26,VWS V12.08,2013-02-11 19:20:00,
2013-02-11 14:25:00,55.2,50.5,29.96,WSW,248,0.0,0.0,84,0.00,,CLR,0.26,VWS V12.08,2013-02-11 19:25:00,
2013-02-11 14:30:00,55.2,50.5,29.96,WSW,248,0.0,0.0,84,0.00,,CLR,0.26,VWS V12.08,2013-02-11 19:30:00,
2013-02-11 14:35:00,55.2,50.5,29.96,WSW,248,0.0,0.4,84,0.00,,CLR,0.26,VWS V12.08,2013-02-11 19:35:00,
2013-02-11 14:40:00,55.4,50.7,29.95,WSW,248,0.0,0.0,84,0.00,,CLR,0.26,VWS V12.08,2013-02-11 19:40:00,
2013-02-11 14:45:00,55.4,50.7,29.95,WSW,248,0.0,0.0,84,0.00,,CLR,0.26,VWS V12.08,2013-02-11 19:45:00,
2013-02-11 14:50:00,55.6,50.8,29.95,WSW,248,0.0,0.0,84,0.00,,CLR,0.26,VWS V12.08,2013-02-11 19:50:00,
2013-02-11 14:55:00,55.8,51.0,29.94,WSW,248,0.0,0.0,84,0.00,,CLR,0.26,VWS V12.08,2013-02-11 19:55:00,
2013-02-11 15:00:00,55.8,51.0,29.94,NNW,338,0.0,0.0,84,0.00,,CLR,0.26,VWS V12.08,2013-02-11 20:00:00,
2013-02-11 15:05:00,55.9,51.2,29.94,NNW,338,0.0,0.0,84,0.00,,CLR,0.26,VWS V12.08,2013-02-11 20:05:00,
2013-02-11 15:10:00,55.9,51.2,29.94,SSE,158,0.0,1.8,84,0.00,,CLR,0.26,VWS V12.08,2013-02-11 20:10:00,
2013-02-11 15:15:00,56.1,51.4,29.94,SSE,158,0.0,1.8,84,0.00,,CLR,0.26,VWS V12.08,2013-02-11 20:15:00,
2013-02-11 15:20:00,56.3,51.9,29.94,East,90,0.0,0.0,85,0.00,,CLR,0.26,VWS V12.08,2013-02-11 20:20:00,
2013-02-11 15:25:00,56.7,52.2,29.94,NW,315,0.0,1.6,85,0.00,,CLR,0.26,VWS V12.08,2013-02-11 20:25:00,
2013-02-11 15:31:00,57.0,52.6,29.94,NW,315,0.0,1.6,85,0.00,,CLR,0.26,VWS V12.08,2013-02-11 20:31:00,
2013-02-11 15:36:00,57.0,52.6,29.94,NW,315,0.0,1.6,85,0.00,,CLR,0.26,VWS V12.08,2013-02-11 20:36:00,
2013-02-11 15:41:00,57.0,52.2,29.94,ENE,68,0.0,0.0,84,0.00,,CLR,0.26,VWS V12.08,2013-02-11 20:41:00,
2013-02-11 15:46:00,57.0,52.2,29.94,ENE,68,0.0,0.0,84,0.00,,CLR,0.26,VWS V12.08,2013-02-11 20:46:00,
2013-02-11 15:51:00,57.2,52.4,29.94,North,0,0.0,0.0,84,0.00,,CLR,0.26,VWS V12.08,2013-02-11 20:51:00,
2013-02-11 15:56:00,57.4,52.6,29.95,North,0,0.0,0.0,84,0.00,,CLR,0.26,VWS V12.08,2013-02-11 20:56:00,
2013-02-11 16:01:00,57.4,52.6,29.95,SW,225,0.0,0.0,84,0.00,,CLR,0.26,VWS V12.08,2013-02-11 21:01:00,
2013-02-11 16:06:00,57.6,52.8,29.95,WNW,292,0.0,0.0,84,0.00,,CLR,0.26,VWS V12.08,2013-02-11 21:06:00,
2013-02-11 16:11:00,57.6,52.8,29.95,WNW,292,0.0,0.0,84,0.00,,CLR,0.26,VWS V12.08,2013-02-11 21:11:00,
2013-02-11 16:16:00,57.6,52.8,29.95,WNW,292,0.0,0.0,84,0.00,,CLR,0.26,VWS V12.08,2013-02-11 21:16:00,
2013-02-11 16:21:00,57.7,53.0,29.95,WSW,248,0.0,0.0,84,0.00,,CLR,0.26,VWS V12.08,2013-02-11 21:21:00,
2013-02-11 16:26:00,57.7,53.0,29.95,WSW,248,0.0,0.0,84,0.00,,CLR,0.26,VWS V12.08,2013-02-11 21:26:00,
2013-02-11 16:31:00,57.7,53.0,29.95,NE,45,0.0,1.6,84,0.00,,CLR,0.26,VWS V12.08,2013-02-11 21:31:00,
2013-02-11 16:36:00,57.7,53.0,29.94,NE,45,0.0,1.6,84,0.00,,CLR,0.26,VWS V12.08,2013-02-11 21:36:00,
2013-02-11 16:41:00,57.7,52.6,29.93,NE,45,0.0,0.0,83,0.00,,CLR,0.26,VWS V12.08,2013-02-11 21:41:00,
2013-02-11 16:46:00,57.7,52.6,29.93,NE,45,0.0,0.0,83,0.00,,CLR,0.26,VWS V12.08,2013-02-11 21:46:00,
2013-02-11 16:51:00,57.6,52.4,29.95,NNE,22,0.0,0.0,83,0.00,,CLR,0.26,VWS V12.08,2013-02-11 21:51:00,
2013-02-11 16:56:00,57.4,52.3,29.94,NNE,22,0.0,0.0,83,0.00,,CLR,0.26,VWS V12.08,2013-02-11 21:56:00,
2013-02-11 17:01:00,57.4,52.3,29.95,West,270,0.7,0.7,83,0.00,,CLR,0.26,VWS V12.08,2013-02-11 22:01:00,
2013-02-11 17:06:00,57.4,52.3,29.94,WSW,248,0.0,0.7,83,0.00,,CLR,0.26,VWS V12.08,2013-02-11 22:06:00,
2013-02-11 17:11:00,57.0,51.9,29.95,East,90,0.7,0.7,83,0.00,,CLR,0.26,VWS V12.08,2013-02-11 22:11:00,
2013-02-11 17:16:00,56.8,51.7,29.94,East,90,0.7,0.7,83,0.00,,CLR,0.26,VWS V12.08,2013-02-11 22:16:00,
2013-02-11 17:21:00,56.5,51.4,29.94,SSE,158,0.0,0.0,83,0.00,,CLR,0.26,VWS V12.08,2013-02-11 22:21:00,
2013-02-11 17:26:00,56.1,51.0,29.94,SSE,158,0.0,0.0,83,0.00,,CLR,0.26,VWS V12.08,2013-02-11 22:26:00,
2013-02-11 17:31:00,55.9,50.9,29.95,NW,315,0.0,0.0,83,0.00,,CLR,0.26,VWS V12.08,2013-02-11 22:31:00,
2013-02-11 17:36:00,55.8,50.7,29.95,NW,315,0.0,0.0,83,0.00,,CLR,0.26,VWS V12.08,2013-02-11 22:36:00,
2013-02-11 17:41:00,55.8,50.7,29.95,NW,315,0.0,0.0,83,0.00,,CLR,0.26,VWS V12.08,2013-02-11 22:41:00,
2013-02-11 17:46:00,55.4,50.3,29.95,NNW,338,0.0,0.0,83,0.00,,CLR,0.26,VWS V12.08,2013-02-11 22:46:00,
2013-02-11 17:51:00,55.2,50.2,29.95,North,0,0.0,0.0,83,0.00,,CLR,0.26,VWS V12.08,2013-02-11 22:51:00,
2013-02-11 17:56:00,55.2,50.2,29.96,North,0,0.0,0.0,83,0.00,,CLR,0.26,VWS V12.08,2013-02-11 22:56:00,
2013-02-11 18:01:00,55.2,50.2,29.95,North,0,0.0,0.0,83,0.00,,CLR,0.26,VWS V12.08,2013-02-11 23:01:00,
2013-02-11 18:06:00,54.7,49.6,29.96,NNW,338,0.0,0.0,83,0.00,,CLR,0.26,VWS V12.08,2013-02-11 23:06:00,
2013-02-11 18:11:00,54.3,49.3,29.95,North,0,0.0,0.0,83,0.00,,CLR,0.26,VWS V12.08,2013-02-11 23:11:00,
2013-02-11 18:16:00,54.3,49.3,29.95,North,0,0.0,0.0,83,0.00,,CLR,0.26,VWS V12.08,2013-02-11 23:16:00,
2013-02-11 18:21:00,54.0,48.9,29.96,NNE,22,0.0,0.0,83,0.00,,CLR,0.26,VWS V12.08,2013-02-11 23:21:00,
2013-02-11 18:26:00,53.8,48.8,29.96,NNE,22,0.0,0.0,83,0.00,,CLR,0.26,VWS V12.08,2013-02-11 23:26:00,
2013-02-11 18:31:00,53.8,49.1,29.97,WSW,248,0.0,0.0,84,0.00,,CLR,0.26,VWS V12.08,2013-02-11 23:31:00,
2013-02-11 18:36:00,53.4,48.7,29.97,WSW,248,0.0,0.0,84,0.00,,CLR,0.26,VWS V12.08,2013-02-11 23:36:00,
2013-02-11 18:41:00,53.2,48.2,29.97,WSW,248,0.0,0.0,83,0.00,,CLR,0.26,VWS V12.08,2013-02-11 23:41:00,
2013-02-11 18:46:00,53.2,48.2,29.98,WSW,248,0.0,0.0,83,0.00,,CLR,0.26,VWS V12.08,2013-02-11 23:46:00,
2013-02-11 18:51:00,52.9,47.9,29.98,WSW,248,0.0,0.0,83,0.00,,CLR,0.26,VWS V12.08,2013-02-11 23:51:00,
2013-02-11 18:56:00,52.5,47.5,29.97,ESE,112,0.0,0.0,83,0.00,,CLR,0.26,VWS V12.08,2013-02-11 23:56:00,
2013-02-11 19:01:00,52.3,47.3,29.96,ESE,112,0.0,0.0,83,0.00,,CLR,0.19,VWS V12.08,2013-02-12 00:01:00,
2013-02-11 19:06:00,52.2,47.2,29.97,ESE,112,0.0,0.0,83,0.00,,CLR,0.19,VWS V12.08,2013-02-12 00:06:00,
2013-02-11 19:11:00,52.0,46.7,29.97,ESE,112,0.0,0.0,82,0.00,,CLR,0.19,VWS V12.08,2013-02-12 00:11:00,
2013-02-11 19:16:00,51.6,46.3,29.98,ESE,112,0.0,0.0,82,0.00,,CLR,0.19,VWS V12.08,2013-02-12 00:16:00,
2013-02-11 19:22:00,51.3,45.6,29.98,ESE,112,0.0,0.0,81,0.00,,CLR,0.19,VWS V12.08,2013-02-12 00:22:00,
2013-02-11 19:27:00,51.1,45.1,29.98,ESE,112,0.0,0.0,80,0.00,,CLR,0.19,VWS V12.08,2013-02-12 00:27:00,
2013-02-11 19:32:00,50.7,44.8,29.98,ESE,112,0.0,0.0,80,0.00,,CLR,0.19,VWS V12.08,2013-02-12 00:32:00,
2013-02-11 19:37:00,50.5,43.3,29.98,WSW,248,4.7,4.7,76,0.00,,CLR,0.19,VWS V12.08,2013-02-12 00:37:00,
2013-02-11 19:42:00,50.5,42.2,29.98,West,270,0.0,1.3,73,0.00,,CLR,0.19,VWS V12.08,2013-02-12 00:42:00,
2013-02-11 19:47:00,50.5,40.8,29.99,WNW,292,3.4,3.6,69,0.00,,CLR,0.19,VWS V12.08,2013-02-12 00:47:00,
2013-02-11 19:52:00,50.7,39.0,29.98,NW,315,0.0,3.6,64,0.00,,CLR,0.19,VWS V12.08,2013-02-12 00:52:00,
2013-02-11 19:57:00,50.7,39.4,29.98,NW,315,0.0,3.6,65,0.00,,CLR,0.19,VWS V12.08,2013-02-12 00:57:00,
2013-02-11 20:02:00,50.9,39.6,29.98,WNW,292,0.0,0.0,65,0.00,,CLR,0.13,VWS V12.08,2013-02-12 01:02:00,
2013-02-11 20:07:00,50.9,39.6,29.98,NW,315,0.0,0.0,65,0.00,,CLR,0.13,VWS V12.08,2013-02-12 01:07:00,
2013-02-11 20:12:00,50.5,39.2,29.98,SSW,202,0.0,0.0,65,0.00,,CLR,0.13,VWS V12.08,2013-02-12 01:12:00,
2013-02-11 20:17:00,50.4,39.1,29.98,South,180,0.0,0.0,65,0.00,,CLR,0.13,VWS V12.08,2013-02-12 01:17:00,
2013-02-11 20:22:00,50.2,38.9,29.98,South,180,0.0,0.0,65,0.00,,CLR,0.13,VWS V12.08,2013-02-12 01:22:00,
2013-02-11 20:27:00,50.7,36.5,29.97,WSW,248,0.0,0.0,58,0.00,,CLR,0.13,VWS V12.08,2013-02-12 01:27:00,
2013-02-11 20:32:00,51.3,36.6,29.97,NE,45,0.0,0.0,57,0.00,,CLR,0.13,VWS V12.08,2013-02-12 01:32:00,
2013-02-11 20:37:00,51.3,36.6,29.97,ENE,68,0.0,0.0,57,0.00,,CLR,0.13,VWS V12.08,2013-02-12 01:37:00,
2013-02-11 20:42:00,51.1,36.4,29.97,SSW,202,0.0,4.3,57,0.00,,CLR,0.13,VWS V12.08,2013-02-12 01:42:00,
2013-02-11 20:47:00,50.9,36.7,29.98,North,0,0.0,4.3,58,0.00,,CLR,0.13,VWS V12.08,2013-02-12 01:47:00,
2013-02-11 20:52:00,50.7,36.5,29.98,SSE,158,0.0,4.3,58,0.00,,CLR,0.13,VWS V12.08,2013-02-12 01:52:00,
2013-02-11 20:57:00,50.4,36.2,29.98,SE,135,0.0,4.3,58,0.00,,CLR,0.13,VWS V12.08,2013-02-12 01:57:00,
2013-02-11 21:02:00,50.2,36.0,29.98,SE,135,0.0,0.0,58,0.00,,CLR,0.09,VWS V12.08,2013-02-12 02:02:00,
2013-02-11 21:07:00,50.2,35.5,29.98,SE,135,0.0,0.0,57,0.00,,CLR,0.09,VWS V12.08,2013-02-12 02:07:00,
2013-02-11 21:12:00,50.2,34.7,29.98,SE,135,0.0,0.0,55,0.00,,CLR,0.09,VWS V12.08,2013-02-12 02:12:00,
2013-02-11 21:17:00,50.2,34.7,29.98,East,90,0.0,0.0,55,0.00,,CLR,0.09,VWS V12.08,2013-02-12 02:17:00,
2013-02-11 21:22:00,50.2,34.2,29.98,SE,135,0.0,0.0,54,0.00,,CLR,0.09,VWS V12.08,2013-02-12 02:22:00,
2013-02-11 21:27:00,50.2,33.7,29.98,SSE,158,0.0,0.0,53,0.00,,CLR,0.09,VWS V12.08,2013-02-12 02:27:00,
2013-02-11 21:32:00,50.2,34.2,29.98,SSE,158,0.0,0.0,54,0.00,,CLR,0.09,VWS V12.08,2013-02-12 02:32:00,
2013-02-11 21:37:00,49.8,33.4,29.98,SE,135,0.0,0.0,53,0.00,,CLR,0.09,VWS V12.08,2013-02-12 02:37:00,
2013-02-11 21:42:00,49.8,33.4,29.98,SSE,158,1.1,1.1,53,0.00,,CLR,0.09,VWS V12.08,2013-02-12 02:42:00,
2013-02-11 21:47:00,49.8,33.4,29.98,ESE,112,0.0,1.1,53,0.00,,CLR,0.09,VWS V12.08,2013-02-12 02:47:00,
2013-02-11 21:52:00,49.8,33.4,29.98,South,180,0.0,1.1,53,0.00,,CLR,0.09,VWS V12.08,2013-02-12 02:52:00,
2013-02-11 21:57:00,50.2,33.7,29.98,SSW,202,1.8,1.8,53,0.00,,CLR,0.09,VWS V12.08,2013-02-12 02:57:00,
2013-02-11 22:02:00,50.2,33.2,29.98,SSE,158,0.0,0.0,52,0.00,,CLR,0.09,VWS V12.08,2013-02-12 03:02:00,
2013-02-11 22:07:00,50.2,33.2,29.98,SSE,158,0.0,0.0,52,0.00,,CLR,0.09,VWS V12.08,2013-02-12 03:07:00,
2013-02-11 22:12:00,50.2,32.8,29.98,SSW,202,0.0,1.6,51,0.00,,CLR,0.09,VWS V12.08,2013-02-12 03:12:00,
2013-02-11 22:17:00,50.2,32.8,29.98,SSE,158,0.0,1.6,51,0.00,,CLR,0.09,VWS V12.08,2013-02-12 03:17:00,
2013-02-11 22:22:00,50.2,32.8,29.98,WSW,248,0.0,0.0,51,0.00,,CLR,0.09,VWS V12.08,2013-02-12 03:22:00,
2013-02-11 22:27:00,50.2,32.8,29.98,NW,315,0.0,0.0,51,0.00,,CLR,0.09,VWS V12.08,2013-02-12 03:27:00,
2013-02-11 22:32:00,50.2,32.8,29.98,NW,315,0.0,0.0,51,0.00,,CLR,0.09,VWS V12.08,2013-02-12 03:32:00,
2013-02-11 22:37:00,50.2,32.8,29.97,ENE,68,0.4,0.4,51,0.00,,CLR,0.09,VWS V12.08,2013-02-12 03:37:00,
2013-02-11 22:42:00,50.4,32.4,29.98,WNW,292,0.0,0.0,50,0.00,,CLR,0.09,VWS V12.08,2013-02-12 03:42:00,
2013-02-11 22:47:00,50.4,32.4,29.97,WNW,292,0.0,0.0,50,0.00,,CLR,0.09,VWS V12.08,2013-02-12 03:47:00,
2013-02-11 22:52:00,50.5,32.1,29.97,SW,225,0.0,0.0,49,0.00,,CLR,0.09,VWS V12.08,2013-02-12 03:52:00,
2013-02-11 22:57:00,50.4,32.4,29.98,West,270,0.4,0.4,50,0.00,,CLR,0.09,VWS V12.08,2013-02-12 03:57:00,
2013-02-11 23:02:00,50.4,32.4,29.97,WSW,248,0.0,0.0,50,0.00,,CLR,0.06,VWS V12.08,2013-02-12 04:02:00,
2013-02-11 23:07:00,50.4,31.4,29.97,SW,225,0.0,4.5,48,0.00,,CLR,0.06,VWS V12.08,2013-02-12 04:07:00,
2013-02-11 23:12:00,50.5,31.6,29.97,WSW,248,0.0,4.5,48,0.00,,CLR,0.06,VWS V12.08,2013-02-12 04:12:00,
2013-02-11 23:17:00,50.7,31.8,29.97,WSW,248,0.0,4.5,48,0.00,,CLR,0.06,VWS V12.08,2013-02-12 04:17:00,
2013-02-11 23:22:00,50.7,31.2,29.96,WSW,248,2.7,2.7,47,0.00,,CLR,0.06,VWS V12.08,2013-02-12 04:22:00,
2013-02-11 23:27:00,50.9,30.9,29.96,SW,225,4.9,4.9,46,0.00,,CLR,0.06,VWS V12.08,2013-02-12 04:27:00,
2013-02-11 23:32:00,50.9,30.9,29.96,SW,225,4.9,4.9,46,0.00,,CLR,0.06,VWS V12.08,2013-02-12 04:32:00,
2013-02-11 23:37:00,51.1,31.0,29.95,WSW,248,0.0,4.9,46,0.00,,CLR,0.06,VWS V12.08,2013-02-12 04:37:00,
2013-02-11 23:42:00,51.1,31.0,29.95,WNW,292,0.9,0.9,46,0.00,,CLR,0.06,VWS V12.08,2013-02-12 04:42:00,
2013-02-11 23:47:00,51.1,31.0,29.95,West,270,0.0,0.9,46,0.00,,CLR,0.06,VWS V12.08,2013-02-12 04:47:00,
2013-02-11 23:52:00,50.9,30.3,29.95,NW,315,0.0,0.9,45,0.00,,CLR,0.06,VWS V12.08,2013-02-12 04:52:00,
2013-02-11 23:57:00,50.9,29.8,29.96,NNW,338,0.0,8.5,44,0.00,,CLR,0.06,VWS V12.08,2013-02-12 04:57:00,